This is the latest recevied weather packets stored in our database for station/object AG1T-1. If no packets are shown the sender has not sent any weather packets the latest 10 day(s).
| Time | Temp. | Humidity | Pressure | Rain* | Wind** | Luminosity | Snow |
|---|---|---|---|---|---|---|---|
| 1777925403 | 23.33° C | 30% | 1010.9 hPa | 0 mm | - | 893 W/m² | - |
| 1777924803 | 23.33° C | 29% | 1011.1 hPa | 0 mm | - | 896 W/m² | - |
| 1777924203 | 23.89° C | 30% | 1011.2 hPa | 0 mm | - | 902 W/m² | - |
| 1777923603 | 23.33° C | 27% | 1011.3 hPa | 0 mm | - | 904 W/m² | - |
| 1777923003 | 23.33° C | 29% | 1011.4 hPa | 0 mm | - | 904 W/m² | - |
| 1777922403 | 23.33° C | 27% | 1011.6 hPa | 0 mm | - | 904 W/m² | - |
| 1777921803 | 23.33° C | 28% | 1011.7 hPa | 0 mm | - | 898 W/m² | - |
| 1777921203 | 23.33° C | 30% | 1011.9 hPa | 0 mm | - | 896 W/m² | - |
| 1777920603 | 22.78° C | 30% | 1012.1 hPa | 0 mm | - | 889 W/m² | - |
| 1777920003 | 22.22° C | 33% | 1012.3 hPa | 0 mm | - | 881 W/m² | - |
| 1777919403 | 22.22° C | 36% | 1012.4 hPa | 0 mm | - | 875 W/m² | - |
| 1777918803 | 21.67° C | 37% | 1012.6 hPa | 0 mm | - | 861 W/m² | - |
| 1777918203 | 20.56° C | 40% | 1012.8 hPa | 0 mm | - | 851 W/m² | - |
| 1777917603 | 20° C | 36% | 1012.9 hPa | 0 mm | - | 840 W/m² | - |
| 1777917003 | 20.56° C | 38% | 1013.1 hPa | 0 mm | - | 828 W/m² | - |
| 1777916403 | 20° C | 41% | 1013.1 hPa | 0 mm | - | 810 W/m² | - |
| 1777915803 | 19.44° C | 40% | 1013.2 hPa | 0 mm | - | 796 W/m² | - |
| 1777915203 | 18.33° C | 40% | 1013.3 hPa | 0 mm | - | 775 W/m² | - |
| 1777914604 | 17.78° C | 42% | 1013.3 hPa | 0 mm | - | 754 W/m² | - |
| 1777914003 | 17.22° C | 45% | 1013.3 hPa | 0 mm | - | 737 W/m² | - |
| 1777913403 | 17.22° C | 45% | 1013.3 hPa | 0 mm | - | 714 W/m² | - |
| 1777912803 | 16.11° C | 44% | 1013.4 hPa | 0 mm | - | 691 W/m² | - |
| 1777912203 | 15.56° C | 46% | 1013.4 hPa | 0 mm | - | 670 W/m² | - |
| 1777911603 | 15° C | 45% | 1013.4 hPa | 0 mm | - | 645 W/m² | - |
| 1777911003 | 14.44° C | 46% | 1013.4 hPa | 0 mm | - | 621 W/m² | - |
* Rain latest hour (hover to see other rain measurements)
** Current wind speed in m/s (hover to see current wind gust speed)